LETO METAR and TAF | Updated Today

LETO METAR

Torrejón Airport

Observation time: 23 min. ago

LETO 052000Z 03008KT CAVOK 06/M03 Q1029 NOSIG

Need help? Read our tutorial on how to read METARs or read the parsed version below.

Torrejón Airport (LETO) METAR

  • Weather conditions on Sun, 05 Feb 2023 20:00:00 +0000 (23 min. ago):
  • Present conditions: Dry
  • Clouds: Clear skies
  • Visibility: Greater than 10 km
  • Wind: 30 degrees at 8 knots
  • Temperature: 6 celsius
  • Dew point: -3 celsius
  • Pressure: 1029 millibars
  • Remarks: None


Useful to know...

LETO TAF

Torrejón Airport

TAF LETO 051700Z 0518/0618 06010KT CAVOK TX18/0615Z TNM01/0606Z PROB30 TEMPO 0610/0612 07015G35KT
Observation time: 3:23 hr. ago
Need help? Read our tutorial on how to read TAFs or read the parsed version below.

Parsed version of TAF for Torrejón Airport (LETO)

  • From 05 February at 18:00 UTC, to day 06 of the month at 18:00 UTC
  • Visibility: Greater than 10 km
  • Wind: 60 degrees at 10
  • Expected to arise temporarily, from 06 February at 10:00 UTC, to day 06 of the month at 12:00 UTC
    Probability of 30%
  • Wind: 70 degrees at 15